Time;durP1;ratioP1;P1;durP2;ratioP2;P2;SDS_P1;SDS_P2;PMS_P1;PMS_P2;Temp;Humidity;BMP_temperature;BMP_pressure;BME280_temperature;BME280_humidity;BME280_pressure;Samples;Min_cycle;Max_cycle;Signal;HPM_P1;HPM_P2
2023/05/14 00:00:14;;;;;;;1.42;1.33;;;12.00;99.90;;;;;;4962576;28;20133;-72
2023/05/14 00:02:41;;;;;;;0.70;0.70;;;12.00;99.90;;;;;;4975478;28;20069;-71
2023/05/14 00:05:07;;;;;;;1.00;1.00;;;12.00;99.90;;;;;;4965622;28;20141;-71
2023/05/14 00:07:33;;;;;;;1.08;0.85;;;11.90;99.90;;;;;;4971822;28;20058;-72
2023/05/14 00:09:58;;;;;;;1.20;1.10;;;11.90;99.90;;;;;;4966985;28;20042;-71
2023/05/14 00:12:25;;;;;;;0.95;0.80;;;11.80;99.90;;;;;;4986575;28;20161;-71
2023/05/14 00:14:52;;;;;;;0.73;0.73;;;11.70;99.90;;;;;;4970086;28;20057;-71
2023/05/14 00:17:17;;;;;;;0.73;0.73;;;11.70;99.90;;;;;;4987218;28;20046;-71
2023/05/14 00:19:43;;;;;;;0.40;0.40;;;11.70;99.90;;;;;;4970485;28;20050;-71
2023/05/14 00:22:10;;;;;;;0.47;0.47;;;11.70;99.90;;;;;;4954417;28;20121;-71
2023/05/14 00:24:36;;;;;;;0.75;0.70;;;11.70;99.90;;;;;;4970746;28;20423;-71
2023/05/14 00:27:02;;;;;;;0.43;0.43;;;11.70;99.90;;;;;;4969587;28;20078;-70
2023/05/14 00:29:28;;;;;;;0.40;0.40;;;11.70;99.90;;;;;;4986566;28;20058;-71
2023/05/14 00:31:54;;;;;;;0.32;0.32;;;11.70;99.90;;;;;;4971073;28;20048;-71
2023/05/14 00:34:20;;;;;;;0.35;0.35;;;11.70;99.90;;;;;;4970468;28;20054;-71
2023/05/14 00:36:46;;;;;;;0.70;0.70;;;11.70;99.90;;;;;;4988485;28;20384;-72
2023/05/14 00:39:13;;;;;;;0.65;0.65;;;11.70;99.90;;;;;;4965898;28;20129;-71
2023/05/14 00:41:38;;;;;;;1.70;0.40;;;11.60;99.90;;;;;;4970560;28;20061;-71
2023/05/14 00:44:04;;;;;;;0.30;0.30;;;11.70;99.90;;;;;;4968608;28;20046;-71
2023/05/14 00:46:30;;;;;;;1.10;1.00;;;11.70;99.90;;;;;;4971270;28;20038;-71
2023/05/14 00:48:57;;;;;;;0.47;0.47;;;11.60;99.90;;;;;;4970374;28;20057;-71
2023/05/14 00:51:23;;;;;;;0.75;0.75;;;11.60;99.90;;;;;;4970371;28;20050;-71
2023/05/14 00:53:49;;;;;;;0.73;0.73;;;11.50;99.90;;;;;;4968792;28;20045;-72
2023/05/14 00:56:16;;;;;;;0.40;0.40;;;11.50;99.90;;;;;;4970835;28;20193;-71
2023/05/14 00:58:41;;;;;;;0.82;0.82;;;11.50;99.90;;;;;;4967035;28;20086;-71
2023/05/14 01:01:08;;;;;;;0.80;0.80;;;11.50;99.90;;;;;;4970104;28;20110;-71
2023/05/14 01:03:34;;;;;;;1.45;1.17;;;11.50;99.90;;;;;;4970750;28;20068;-71
2023/05/14 01:06:17;;;;;;;0.80;0.80;;;11.50;99.90;;;;;;4970430;28;20046;-71
2023/05/14 01:08:52;;;;;;;0.70;0.63;;;11.50;99.90;;;;;;4970825;28;20039;-71
2023/05/14 01:11:29;;;;;;;1.00;1.00;;;11.50;99.90;;;;;;4969427;28;20053;-71
2023/05/14 01:14:02;;;;;;;6.17;1.60;;;11.50;99.90;;;;;;4972520;28;20614;-71
2023/05/14 01:16:32;;;;;;;0.90;0.90;;;11.50;99.90;;;;;;4986805;28;20141;-71
2023/05/14 01:19:00;;;;;;;0.63;0.57;;;11.50;99.90;;;;;;4969854;28;20531;-72
2023/05/14 01:21:36;;;;;;;1.05;0.93;;;11.50;99.90;;;;;;4969434;28;20054;-71
2023/05/14 01:24:01;;;;;;;0.85;0.82;;;11.50;99.90;;;;;;4968750;28;20093;-72
2023/05/14 01:26:30;;;;;;;0.52;0.52;;;11.40;99.90;;;;;;4969204;28;20074;-71
2023/05/14 01:29:00;;;;;;;;;;;11.40;99.90;;;;;;4970337;28;20522;-71
2023/05/14 01:31:27;;;;;;;0.85;0.85;;;11.40;99.90;;;;;;4968724;28;19980;-71
2023/05/14 01:33:56;;;;;;;1.10;1.02;;;11.40;99.90;;;;;;4968804;28;20463;-71
2023/05/14 01:36:22;;;;;;;0.60;0.60;;;11.40;99.90;;;;;;4985841;28;20050;-71
2023/05/14 01:38:50;;;;;;;1.65;1.55;;;11.40;99.90;;;;;;4988963;28;20172;-70
2023/05/14 01:41:18;;;;;;;1.13;0.85;;;11.30;99.90;;;;;;4968569;28;20148;-71
2023/05/14 01:43:44;;;;;;;0.70;0.70;;;11.30;99.90;;;;;;4969552;28;20447;-71
2023/05/14 01:46:10;;;;;;;0.88;0.82;;;11.30;99.90;;;;;;4984964;28;20129;-71
2023/05/14 01:48:36;;;;;;;0.82;0.82;;;11.30;99.90;;;;;;4985546;28;20180;-71
2023/05/14 01:51:02;;;;;;;1.00;0.90;;;11.30;99.90;;;;;;4969301;28;20053;-71
2023/05/14 01:53:28;;;;;;;1.27;1.23;;;11.20;99.90;;;;;;4969353;28;20510;-71
2023/05/14 01:55:54;;;;;;;0.77;0.77;;;11.20;99.90;;;;;;4973174;28;20046;-71
2023/05/14 01:58:19;;;;;;;1.45;1.23;;;11.20;99.90;;;;;;4969698;28;20858;-71
2023/05/14 02:00:46;;;;;;;2.40;1.70;;;11.20;99.90;;;;;;4969499;28;20491;-71
2023/05/14 02:03:12;;;;;;;0.60;0.60;;;11.20;99.90;;;;;;4969926;28;20047;-71
2023/05/14 02:05:37;;;;;;;0.85;0.85;;;11.20;99.90;;;;;;4967350;28;20427;-71
2023/05/14 02:08:03;;;;;;;0.68;0.68;;;11.10;99.90;;;;;;4968799;28;20058;-71
2023/05/14 02:10:29;;;;;;;0.95;0.95;;;11.10;99.90;;;;;;4979833;28;20051;-71
2023/05/14 02:12:55;;;;;;;0.60;0.60;;;11.10;99.90;;;;;;4972669;28;20086;-71
2023/05/14 02:15:21;;;;;;;1.38;1.33;;;11.10;99.90;;;;;;4988126;28;20069;-71
2023/05/14 02:17:48;;;;;;;0.75;0.75;;;11.00;99.90;;;;;;4962089;28;20597;-71
2023/05/14 02:20:14;;;;;;;1.23;1.15;;;10.90;99.90;;;;;;4957593;28;20408;-71
2023/05/14 02:22:44;;;;;;;2.03;1.30;;;10.80;99.90;;;;;;4978940;28;20046;-71
2023/05/14 02:25:10;;;;;;;2.63;1.50;;;10.80;99.90;;;;;;4963057;28;20090;-71
2023/05/14 02:27:35;;;;;;;0.52;0.52;;;10.80;99.90;;;;;;4967072;28;20081;-71
2023/05/14 02:30:02;;;;;;;0.77;0.60;;;10.80;99.90;;;;;;4964210;28;20046;-71
2023/05/14 02:32:29;;;;;;;0.70;0.70;;;10.80;99.90;;;;;;4963796;28;20039;-71
2023/05/14 02:34:54;;;;;;;0.80;0.80;;;10.80;99.90;;;;;;4978778;28;20046;-71
2023/05/14 02:37:20;;;;;;;0.68;0.68;;;10.80;99.90;;;;;;4978423;28;20053;-71
2023/05/14 02:39:47;;;;;;;0.50;0.50;;;10.80;99.90;;;;;;4972051;28;20057;-71
2023/05/14 02:42:13;;;;;;;0.68;0.68;;;10.80;99.90;;;;;;4972286;28;20046;-71
2023/05/14 02:44:39;;;;;;;0.85;0.85;;;10.80;99.90;;;;;;4988860;28;20038;-71
2023/05/14 02:47:05;;;;;;;1.05;1.05;;;10.80;99.90;;;;;;4989191;28;20043;-71
2023/05/14 02:49:31;;;;;;;0.45;0.40;;;10.80;99.90;;;;;;4971781;28;20112;-71
2023/05/14 02:51:57;;;;;;;0.32;0.32;;;10.80;99.90;;;;;;4970238;28;20694;-71
2023/05/14 02:54:23;;;;;;;0.40;0.40;;;10.80;99.90;;;;;;4988221;28;20062;-71
2023/05/14 02:56:49;;;;;;;0.38;0.38;;;10.70;99.90;;;;;;4972151;28;20700;-71
2023/05/14 02:59:15;;;;;;;0.40;0.40;;;10.80;99.90;;;;;;4971189;28;20058;-71
2023/05/14 03:01:40;;;;;;;0.52;0.52;;;10.70;99.90;;;;;;4989047;28;20046;-71
2023/05/14 03:04:06;;;;;;;0.38;0.38;;;10.70;99.90;;;;;;4971744;28;20042;-71
2023/05/14 03:06:32;;;;;;;0.80;0.50;;;10.60;99.90;;;;;;4992412;28;20054;-71
2023/05/14 03:08:57;;;;;;;2.65;1.27;;;10.70;99.90;;;;;;4971105;28;20046;-71
2023/05/14 03:11:23;;;;;;;1.45;1.02;;;10.60;99.90;;;;;;4971119;28;20042;-71
2023/05/14 03:13:49;;;;;;;0.80;0.80;;;10.60;99.90;;;;;;4972054;28;20073;-71
2023/05/14 03:16:15;;;;;;;1.50;1.50;;;10.60;99.90;;;;;;4988383;28;20039;-71
2023/05/14 03:18:40;;;;;;;3.35;1.20;;;10.60;99.90;;;;;;4971209;28;20053;-71
2023/05/14 03:21:07;;;;;;;1.27;1.17;;;10.60;99.90;;;;;;4972381;28;20050;-71
2023/05/14 03:23:33;;;;;;;0.98;0.98;;;10.60;99.90;;;;;;4970604;28;20046;-71
2023/05/14 03:26:00;;;;;;;0.93;0.93;;;10.50;99.90;;;;;;4988777;28;20046;-71
2023/05/14 03:28:26;;;;;;;1.85;0.82;;;10.50;99.90;;;;;;4989030;28;20613;-71
2023/05/14 03:30:52;;;;;;;4.68;1.00;;;10.50;99.90;;;;;;4988670;28;20038;-71
2023/05/14 03:33:17;;;;;;;0.90;0.90;;;10.50;99.90;;;;;;4971621;28;20054;-71
2023/05/14 03:35:43;;;;;;;0.60;0.60;;;10.50;99.90;;;;;;4988970;28;20051;-71
2023/05/14 03:38:09;;;;;;;0.65;0.65;;;10.50;99.90;;;;;;4989123;28;20403;-71
2023/05/14 03:40:35;;;;;;;1.00;1.00;;;10.50;99.90;;;;;;4987573;28;20692;-71
2023/05/14 03:43:00;;;;;;;0.80;0.80;;;10.50;99.90;;;;;;4971581;28;20042;-71
2023/05/14 03:45:27;;;;;;;1.08;1.02;;;10.50;99.90;;;;;;4971015;28;20046;-71
2023/05/14 03:47:53;;;;;;;0.80;0.80;;;10.40;99.90;;;;;;4971291;28;20058;-71
2023/05/14 03:50:18;;;;;;;0.60;0.60;;;10.30;99.90;;;;;;4970862;28;20120;-71
2023/05/14 03:52:44;;;;;;;0.40;0.40;;;10.30;99.90;;;;;;4972461;28;20051;-71
2023/05/14 03:55:10;;;;;;;0.30;0.30;;;10.30;99.90;;;;;;4971216;28;20058;-70
2023/05/14 03:57:36;;;;;;;0.43;0.43;;;10.30;99.90;;;;;;4988596;28;20054;-71
2023/05/14 04:00:06;;;;;;;0.70;0.70;;;10.30;99.90;;;;;;4971488;28;20081;-71
2023/05/14 04:02:31;;;;;;;0.60;0.60;;;10.30;99.90;;;;;;4971759;28;20061;-70
2023/05/14 04:04:57;;;;;;;3.15;0.80;;;10.30;99.90;;;;;;4971594;28;20433;-70
2023/05/14 04:07:22;;;;;;;0.30;0.30;;;10.30;99.90;;;;;;4989121;28;20050;-70
2023/05/14 04:09:48;;;;;;;1.13;1.08;;;10.30;99.90;;;;;;4989357;28;21182;-70
2023/05/14 04:12:14;;;;;;;1.40;1.30;;;10.30;99.90;;;;;;4988847;28;20050;-70
2023/05/14 04:14:39;;;;;;;0.85;0.55;;;10.30;99.90;;;;;;4988241;28;20038;-71
2023/05/14 04:17:05;;;;;;;0.77;0.63;;;10.30;99.90;;;;;;4987990;28;20043;-71
2023/05/14 04:19:31;;;;;;;0.77;0.77;;;10.30;99.90;;;;;;4987355;28;20515;-71
2023/05/14 04:21:56;;;;;;;0.70;0.70;;;10.30;99.90;;;;;;4984399;28;20166;-71
2023/05/14 04:24:22;;;;;;;0.68;0.68;;;10.30;99.90;;;;;;4981322;28;20694;-70
2023/05/14 04:26:47;;;;;;;0.80;0.80;;;10.30;99.90;;;;;;4987290;28;20046;-70
2023/05/14 04:29:13;;;;;;;0.75;0.75;;;10.40;99.90;;;;;;4985309;28;20069;-70
2023/05/14 04:31:39;;;;;;;0.68;0.68;;;10.50;99.90;;;;;;4960678;28;20057;-70
2023/05/14 04:34:05;;;;;;;0.32;0.32;;;10.50;99.90;;;;;;4989251;28;20043;-71
2023/05/14 04:36:31;;;;;;;1.77;1.02;;;10.50;99.90;;;;;;4988537;28;20042;-71
2023/05/14 04:38:56;;;;;;;0.60;0.60;;;10.60;99.90;;;;;;4987476;28;20085;-71
2023/05/14 04:41:22;;;;;;;0.98;0.93;;;10.60;99.90;;;;;;4970953;28;20129;-71
2023/05/14 04:43:49;;;;;;;0.63;0.63;;;10.60;99.90;;;;;;4988394;28;20050;-70
2023/05/14 04:46:15;;;;;;;2.45;1.67;;;10.70;99.90;;;;;;4969541;28;20100;-71
2023/05/14 04:48:41;;;;;;;0.50;0.50;;;10.60;99.90;;;;;;4984535;28;20062;-71
2023/05/14 04:51:06;;;;;;;0.40;0.40;;;10.70;99.90;;;;;;4986157;28;20480;-71
2023/05/14 04:53:32;;;;;;;0.35;0.35;;;10.80;99.90;;;;;;4970363;28;20403;-71
2023/05/14 04:55:58;;;;;;;0.55;0.55;;;10.90;99.90;;;;;;4987369;28;20120;-70
2023/05/14 04:58:23;;;;;;;0.80;0.80;;;11.00;99.90;;;;;;4974268;28;20385;-70
2023/05/14 05:00:49;;;;;;;0.63;0.63;;;11.10;99.90;;;;;;4967765;28;20050;-71
2023/05/14 05:03:15;;;;;;;0.38;0.38;;;11.20;99.90;;;;;;4970019;28;20560;-71
2023/05/14 05:05:40;;;;;;;0.70;0.70;;;11.20;99.90;;;;;;4969749;28;20073;-71
2023/05/14 05:08:06;;;;;;;1.98;1.70;;;11.30;99.90;;;;;;4983080;28;20567;-71
2023/05/14 05:10:32;;;;;;;0.57;0.50;;;11.40;99.90;;;;;;4979549;28;20047;-71
2023/05/14 05:12:57;;;;;;;0.38;0.38;;;11.40;99.90;;;;;;4970903;28;20133;-71
2023/05/14 05:15:23;;;;;;;0.80;0.80;;;11.40;99.90;;;;;;4968929;28;20314;-71
2023/05/14 05:17:49;;;;;;;0.90;0.90;;;11.50;99.90;;;;;;4969479;28;20046;-70
2023/05/14 05:20:14;;;;;;;1.48;1.38;;;11.60;99.90;;;;;;4986955;28;20108;-71
2023/05/14 05:22:40;;;;;;;0.98;0.98;;;11.60;99.90;;;;;;4983199;28;20045;-71
2023/05/14 05:25:06;;;;;;;0.65;0.60;;;11.60;99.90;;;;;;4994735;28;20047;-71
2023/05/14 05:27:32;;;;;;;1.58;0.85;;;11.70;99.90;;;;;;4989779;28;20042;-70
2023/05/14 05:30:00;;;;;;;1.10;1.08;;;11.80;99.90;;;;;;4990172;28;20056;-70
2023/05/14 05:32:25;;;;;;;1.10;0.87;;;11.90;99.90;;;;;;4993122;28;20602;-70
2023/05/14 05:34:51;;;;;;;0.75;0.75;;;12.00;99.90;;;;;;4985610;28;20080;-70
2023/05/14 05:37:17;;;;;;;1.35;0.98;;;12.10;99.90;;;;;;4986590;28;20050;-70
2023/05/14 05:39:42;;;;;;;0.85;0.85;;;12.20;99.90;;;;;;4984628;28;20514;-71
2023/05/14 05:42:09;;;;;;;0.73;0.73;;;12.30;99.90;;;;;;4988712;28;20046;-71
2023/05/14 05:44:34;;;;;;;0.80;0.80;;;12.30;99.90;;;;;;4990959;28;20043;-71
2023/05/14 05:47:00;;;;;;;0.75;0.75;;;12.30;99.90;;;;;;4991268;28;20066;-71
2023/05/14 05:49:26;;;;;;;1.40;1.30;;;12.50;99.90;;;;;;4957036;28;20062;-71
2023/05/14 05:51:51;;;;;;;1.33;1.15;;;12.50;99.90;;;;;;4972874;28;20046;-70
2023/05/14 05:54:17;;;;;;;1.73;0.77;;;12.60;99.90;;;;;;4972801;28;20054;-71
2023/05/14 05:56:43;;;;;;;0.32;0.32;;;12.60;99.90;;;;;;4979274;28;20112;-71
2023/05/14 05:59:08;;;;;;;1.50;1.25;;;12.80;99.90;;;;;;4972851;28;20050;-71
2023/05/14 06:01:35;;;;;;;1.38;1.27;;;12.80;99.90;;;;;;4990918;28;20081;-71
2023/05/14 06:04:00;;;;;;;4.15;1.60;;;12.90;99.90;;;;;;4957609;28;20046;-71
2023/05/14 06:06:27;;;;;;;0.88;0.82;;;13.00;99.90;;;;;;4973205;28;20054;-71
2023/05/14 06:08:53;;;;;;;1.02;0.95;;;13.00;99.90;;;;;;4972580;28;20410;-71
2023/05/14 06:11:18;;;;;;;0.80;0.77;;;13.10;99.90;;;;;;4973392;28;20149;-71
2023/05/14 06:13:44;;;;;;;3.05;1.40;;;13.10;99.90;;;;;;4989706;28;20038;-71
2023/05/14 06:16:10;;;;;;;9.30;1.40;;;13.20;99.90;;;;;;4969702;28;20054;-71
2023/05/14 06:18:38;;;;;;;1.10;1.05;;;13.20;99.90;;;;;;4966002;28;20054;-71
2023/05/14 06:21:04;;;;;;;1.67;1.42;;;13.20;99.90;;;;;;4969847;28;20166;-71
2023/05/14 06:23:30;;;;;;;1.85;1.38;;;13.30;99.90;;;;;;4973381;28;20157;-71
2023/05/14 06:25:55;;;;;;;1.48;1.20;;;13.30;99.90;;;;;;4973405;28;20451;-71
2023/05/14 06:28:21;;;;;;;0.93;0.93;;;13.40;99.90;;;;;;4970951;28;20121;-70
2023/05/14 06:30:49;;;;;;;2.65;2.08;;;13.40;99.90;;;;;;4973114;28;20112;-70
2023/05/14 06:33:15;;;;;;;0.75;0.75;;;13.50;99.90;;;;;;4970725;28;20042;-70
2023/05/14 06:35:40;;;;;;;0.90;0.90;;;13.60;99.90;;;;;;4973033;28;20042;-71
2023/05/14 06:38:06;;;;;;;1.75;1.65;;;13.60;99.90;;;;;;4987726;28;20061;-71
2023/05/14 06:40:31;;;;;;;1.27;1.23;;;13.60;99.90;;;;;;4992464;28;20034;-71
2023/05/14 06:42:57;;;;;;;1.15;1.13;;;13.80;99.90;;;;;;4990826;28;20077;-71
2023/05/14 06:45:23;;;;;;;2.58;1.95;;;13.80;99.90;;;;;;4985075;28;20125;-71
2023/05/14 06:47:48;;;;;;;1.70;1.60;;;14.00;99.90;;;;;;4987307;28;20085;-71
2023/05/14 06:50:14;;;;;;;1.05;1.05;;;14.10;99.90;;;;;;4988365;28;20153;-71
2023/05/14 06:52:42;;;;;;;1.23;1.17;;;14.30;99.90;;;;;;4991769;28;20042;-71
2023/05/14 06:55:08;;;;;;;1.67;1.58;;;14.50;99.90;;;;;;4989466;28;20129;-71
2023/05/14 06:57:33;;;;;;;1.67;1.58;;;14.70;99.90;;;;;;4989664;28;20137;-71
2023/05/14 06:59:59;;;;;;;2.53;2.17;;;14.80;99.90;;;;;;4987244;28;20061;-71
2023/05/14 07:02:24;;;;;;;2.35;1.60;;;15.10;99.90;;;;;;4990230;28;20703;-71
2023/05/14 07:04:50;;;;;;;0.50;0.50;;;15.30;99.90;;;;;;4971755;28;20038;-71
2023/05/14 07:07:19;;;;;;;2.33;2.13;;;15.60;99.90;;;;;;4989202;28;20050;-71
2023/05/14 07:09:44;;;;;;;5.70;1.70;;;15.90;99.90;;;;;;4988953;28;20043;-71
2023/05/14 07:12:10;;;;;;;1.13;1.05;;;16.10;99.90;;;;;;4960248;28;20400;-71
2023/05/14 07:14:36;;;;;;;0.50;0.50;;;16.10;99.90;;;;;;4963598;28;20038;-71
2023/05/14 07:17:02;;;;;;;1.08;1.00;;;16.30;99.90;;;;;;4971147;28;20044;-71
2023/05/14 07:19:28;;;;;;;2.38;2.17;;;16.30;99.90;;;;;;4971769;28;20046;-71
2023/05/14 07:21:55;;;;;;;2.25;2.05;;;16.30;99.90;;;;;;4971723;28;20081;-71
2023/05/14 07:24:22;;;;;;;0.70;0.70;;;16.20;99.90;;;;;;4981907;28;20046;-71
2023/05/14 07:26:48;;;;;;;0.85;0.85;;;16.10;99.90;;;;;;4968528;28;20089;-71
2023/05/14 07:29:13;;;;;;;1.88;1.77;;;16.20;99.90;;;;;;4971145;28;20081;-71
2023/05/14 07:31:39;;;;;;;2.50;1.35;;;16.20;99.90;;;;;;4972049;28;20042;-71
2023/05/14 07:34:05;;;;;;;1.08;1.08;;;16.20;99.90;;;;;;4971185;28;20046;-71
2023/05/14 07:36:30;;;;;;;1.42;1.35;;;16.30;99.90;;;;;;4968945;28;20050;-71
2023/05/14 07:38:56;;;;;;;1.80;1.70;;;16.60;99.90;;;;;;4973568;28;20049;-70
2023/05/14 07:41:22;;;;;;;3.25;1.83;;;16.70;99.90;;;;;;4990229;28;20066;-71
2023/05/14 07:43:51;;;;;;;1.65;1.55;;;16.70;99.90;;;;;;4977722;28;20073;-71
2023/05/14 07:46:17;;;;;;;2.35;2.25;;;16.70;99.90;;;;;;4970808;28;20104;-71
2023/05/14 07:48:43;;;;;;;3.35;2.45;;;16.80;99.90;;;;;;4986834;28;20054;-71
2023/05/14 07:51:10;;;;;;;3.50;2.45;;;16.90;99.90;;;;;;4971298;28;20068;-71
2023/05/14 07:53:36;;;;;;;0.77;0.77;;;17.00;99.90;;;;;;4972572;28;20054;-71
2023/05/14 07:56:02;;;;;;;1.40;1.30;;;17.10;99.90;;;;;;4988774;28;20056;-71
2023/05/14 07:58:27;;;;;;;1.35;1.27;;;17.10;99.90;;;;;;4982983;28;20045;-70
2023/05/14 08:00:53;;;;;;;1.60;1.50;;;16.90;99.90;;;;;;4965885;28;20777;-71
2023/05/14 08:03:19;;;;;;;2.50;2.30;;;16.70;99.90;;;;;;4960187;28;20050;-71
2023/05/14 08:05:45;;;;;;;1.38;1.30;;;16.70;99.90;;;;;;4970456;28;20038;-71
2023/05/14 08:08:11;;;;;;;1.90;1.80;;;16.60;99.90;;;;;;4962420;28;20054;-71
2023/05/14 08:10:37;;;;;;;4.78;3.70;;;16.60;99.90;;;;;;4987865;28;20046;-71
2023/05/14 08:13:02;;;;;;;13.65;4.53;;;16.60;99.90;;;;;;4989282;28;20038;-71
2023/05/14 08:15:28;;;;;;;3.05;2.85;;;16.60;99.90;;;;;;4984203;28;20038;-71
2023/05/14 08:17:54;;;;;;;3.08;2.72;;;16.50;99.90;;;;;;4975720;28;20054;-71
2023/05/14 08:20:19;;;;;;;2.90;2.67;;;16.50;99.90;;;;;;4987230;28;20193;-71
2023/05/14 08:22:45;;;;;;;5.45;1.75;;;16.50;99.90;;;;;;4969673;28;20049;-71
2023/05/14 08:25:11;;;;;;;1.80;1.73;;;16.50;99.90;;;;;;4970561;28;20038;-71
2023/05/14 08:27:37;;;;;;;2.30;2.20;;;16.60;99.90;;;;;;4970910;28;20050;-71
2023/05/14 08:30:05;;;;;;;1.70;1.63;;;16.70;99.90;;;;;;4970086;28;20034;-71
2023/05/14 08:32:31;;;;;;;3.28;2.28;;;16.70;99.90;;;;;;4969361;28;20050;-71
2023/05/14 08:34:59;;;;;;;1.85;1.40;;;16.80;99.90;;;;;;4981930;28;20082;-71
2023/05/14 08:37:25;;;;;;;3.05;2.85;;;16.90;99.90;;;;;;4970876;28;20100;-71
2023/05/14 08:39:51;;;;;;;3.17;2.55;;;17.00;99.90;;;;;;4963642;28;20050;-71
2023/05/14 08:42:19;;;;;;;3.80;3.45;;;17.00;99.90;;;;;;4972004;28;20047;-71
2023/05/14 08:44:52;;;;;;;4.30;2.70;;;17.00;99.90;;;;;;4966694;28;20389;-71
2023/05/14 08:47:20;;;;;;;4.00;2.63;;;17.00;99.90;;;;;;4959909;28;20066;-71
2023/05/14 08:49:50;;;;;;;3.20;2.92;;;17.10;99.90;;;;;;4959901;28;20043;-71
2023/05/14 08:52:18;;;;;;;2.85;2.65;;;17.30;99.90;;;;;;4964341;28;20061;-71
2023/05/14 08:54:47;;;;;;;3.85;2.85;;;17.30;99.90;;;;;;4967809;28;20047;-71
2023/05/14 08:57:16;;;;;;;6.68;6.03;;;17.30;99.90;;;;;;4944971;28;20047;-72
2023/05/14 08:59:41;;;;;;;4.85;4.00;;;17.30;99.90;;;;;;4952199;28;20088;-71
2023/05/14 09:02:16;;;;;;;5.78;3.20;;;17.30;99.90;;;;;;4968986;28;20082;-71
2023/05/14 09:04:42;;;;;;;9.90;2.92;;;17.50;99.90;;;;;;4951325;28;20104;-71
2023/05/14 09:07:08;;;;;;;2.63;2.45;;;17.70;99.90;;;;;;4948046;28;20130;-71
2023/05/14 09:09:34;;;;;;;2.85;2.05;;;17.80;99.90;;;;;;4947533;28;20141;-71
2023/05/14 09:12:00;;;;;;;1.02;1.02;;;17.70;99.90;;;;;;4951056;28;20105;-71
2023/05/14 09:14:26;;;;;;;1.00;1.00;;;17.70;99.90;;;;;;4950076;28;20440;-70
2023/05/14 09:16:51;;;;;;;1.13;1.10;;;17.70;99.90;;;;;;4967650;28;20050;-72
2023/05/14 09:19:17;;;;;;;3.03;1.58;;;17.70;99.90;;;;;;4959212;28;20085;-71
2023/05/14 09:21:45;;;;;;;1.67;1.58;;;17.70;99.90;;;;;;4946198;28;20051;-71
2023/05/14 09:24:22;;;;;;;1.02;0.98;;;17.80;99.90;;;;;;4949909;28;20078;-71
2023/05/14 09:26:53;;;;;;;3.55;1.27;;;18.10;99.90;;;;;;4951153;28;20659;-71
2023/05/14 09:29:19;;;;;;;1.75;1.58;;;18.20;99.90;;;;;;4967336;28;20614;-71
2023/05/14 09:31:45;;;;;;;1.38;1.27;;;18.20;99.90;;;;;;4951078;28;20046;-71
2023/05/14 09:34:11;;;;;;;1.70;1.38;;;18.30;99.90;;;;;;4966560;28;20038;-71
2023/05/14 09:36:37;;;;;;;1.75;1.65;;;18.20;99.90;;;;;;4952225;28;20531;-71
2023/05/14 09:39:03;;;;;;;1.58;1.10;;;18.50;99.90;;;;;;4948377;28;20054;-71
2023/05/14 09:41:29;;;;;;;0.90;0.90;;;18.70;99.90;;;;;;4948083;28;20039;-72
2023/05/14 09:43:56;;;;;;;1.60;1.50;;;18.90;99.90;;;;;;4949279;28;20098;-71
2023/05/14 09:46:22;;;;;;;1.17;1.15;;;19.00;99.90;;;;;;4950127;28;20046;-71
2023/05/14 09:48:49;;;;;;;1.20;1.10;;;19.00;99.90;;;;;;4947938;28;20089;-71
2023/05/14 09:51:19;;;;;;;1.17;1.17;;;19.10;99.90;;;;;;4966734;28;20834;-71
2023/05/14 09:53:45;;;;;;;0.93;0.93;;;19.20;99.90;;;;;;4949272;28;20130;-71
2023/05/14 09:56:13;;;;;;;0.63;0.63;;;19.40;99.90;;;;;;4946058;28;20209;-71
2023/05/14 09:58:38;;;;;;;1.55;1.05;;;19.60;99.90;;;;;;4948169;28;20051;-71
2023/05/14 10:01:05;;;;;;;1.70;1.60;;;19.50;98.90;;;;;;4966069;28;20043;-71
2023/05/14 10:03:33;;;;;;;3.28;2.97;;;19.40;99.90;;;;;;4949022;28;20041;-71
2023/05/14 10:06:05;;;;;;;1.38;1.30;;;19.50;99.90;;;;;;4949458;28;20476;-72
2023/05/14 10:08:34;;;;;;;1.45;1.17;;;19.70;99.90;;;;;;4965076;28;20035;-72
2023/05/14 10:11:05;;;;;;;2.65;1.95;;;19.90;96.40;;;;;;4961470;28;20698;-71
2023/05/14 10:13:36;;;;;;;1.90;1.20;;;20.00;94.80;;;;;;4948647;28;20488;-71
2023/05/14 10:16:43;;;;;;;2.38;2.17;;;20.10;98.10;;;;;;4949433;28;20074;-71
2023/05/14 10:19:11;;;;;;;2.78;2.08;;;20.20;91.40;;;;;;4894880;29;20268;-71
2023/05/14 10:21:39;;;;;;;1.38;1.27;;;20.10;78.80;;;;;;4933847;28;20118;-72
2023/05/14 10:24:06;;;;;;;2.47;2.28;;;20.10;85.60;;;;;;4967111;28;20074;-71
2023/05/14 10:26:38;;;;;;;1.50;1.40;;;20.10;85.50;;;;;;4935207;28;20042;-71
2023/05/14 10:29:04;;;;;;;1.67;1.58;;;20.20;84.10;;;;;;4955330;28;20408;-71
2023/05/14 10:31:46;;;;;;;1.55;1.45;;;20.20;82.00;;;;;;4968523;28;20413;-71
2023/05/14 10:34:37;;;;;;;3.25;2.10;;;20.40;88.70;;;;;;4967148;28;20055;-71
2023/05/14 10:37:11;;;;;;;2.10;1.95;;;20.50;82.10;;;;;;4959170;28;20058;-71
2023/05/14 10:39:43;;;;;;;2.50;2.33;;;20.50;76.20;;;;;;4943840;28;20065;-71
2023/05/14 10:42:19;;;;;;;1.98;1.88;;;20.70;79.60;;;;;;4942937;28;20051;-71
2023/05/14 10:45:07;;;;;;;2.55;2.38;;;20.80;75.50;;;;;;4943032;28;20054;-71
2023/05/14 10:47:44;;;;;;;4.22;3.17;;;20.80;75.30;;;;;;4950990;28;20169;-70
2023/05/14 10:50:11;;;;;;;1.58;1.45;;;20.60;78.10;;;;;;4986694;28;20046;-72
2023/05/14 10:52:39;;;;;;;1.05;1.02;;;20.60;75.20;;;;;;4988388;28;20074;-71
2023/05/14 10:55:14;;;;;;;1.27;1.27;;;20.80;72.80;;;;;;4972696;28;20081;-71
2023/05/14 10:57:42;;;;;;;2.03;1.80;;;20.70;72.00;;;;;;4989946;28;20492;-71
2023/05/14 11:00:09;;;;;;;3.10;2.80;;;20.60;69.80;;;;;;4989154;28;20426;-71
2023/05/14 11:02:37;;;;;;;2.75;2.55;;;20.50;73.50;;;;;;4986053;28;20046;-71
2023/05/14 11:05:07;;;;;;;1.35;1.35;;;20.60;74.50;;;;;;4986397;28;20100;-71
2023/05/14 11:07:42;;;;;;;1.67;1.58;;;20.60;69.20;;;;;;4990128;28;20125;-72
2023/05/14 11:10:12;;;;;;;0.80;0.80;;;20.80;74.50;;;;;;4974315;28;20050;-71
2023/05/14 11:12:40;;;;;;;1.42;1.33;;;21.10;77.40;;;;;;4977697;28;20045;-71
2023/05/14 11:15:08;;;;;;;1.63;1.52;;;21.50;70.50;;;;;;4971417;28;21141;-71
2023/05/14 11:17:35;;;;;;;1.42;1.38;;;21.70;69.20;;;;;;4972031;28;20404;-71
2023/05/14 11:20:01;;;;;;;1.00;1.00;;;21.80;72.50;;;;;;4989221;28;20041;-71
2023/05/14 11:22:28;;;;;;;0.82;0.82;;;21.90;65.30;;;;;;4971695;28;20054;-72
2023/05/14 11:24:54;;;;;;;1.08;1.08;;;21.80;68.60;;;;;;4967378;28;20045;-71
2023/05/14 11:27:21;;;;;;;1.85;1.00;;;21.70;65.80;;;;;;4971140;28;20050;-72
2023/05/14 11:29:48;;;;;;;3.90;1.90;;;21.90;70.90;;;;;;4965773;28;20082;-72
2023/05/14 11:32:15;;;;;;;0.65;0.65;;;22.10;71.20;;;;;;4981082;28;20416;-72
2023/05/14 11:34:43;;;;;;;2.30;2.10;;;22.20;72.90;;;;;;4971279;28;20048;-71
2023/05/14 11:37:11;;;;;;;0.68;0.68;;;22.20;69.60;;;;;;4964238;28;20535;-71
2023/05/14 11:39:38;;;;;;;;;;;22.10;69.80;;;;;;4967316;28;20050;-72
2023/05/14 11:42:11;;;;;;;0.82;0.82;;;22.40;72.20;;;;;;4985197;28;20020;-71
2023/05/14 11:44:41;;;;;;;2.50;1.42;;;22.60;73.00;;;;;;4971888;28;20522;-71
2023/05/14 11:47:06;;;;;;;2.72;1.65;;;22.80;71.00;;;;;;4983908;28;20059;-71
2023/05/14 11:49:34;;;;;;;1.35;1.25;;;22.60;65.60;;;;;;4980007;28;20053;-71
2023/05/14 11:52:01;;;;;;;1.40;0.80;;;22.50;65.80;;;;;;4961791;28;20105;-72
2023/05/14 11:54:28;;;;;;;1.23;1.00;;;22.60;65.00;;;;;;4981014;28;20412;-72
2023/05/14 11:56:58;;;;;;;1.23;1.13;;;22.80;67.30;;;;;;4988656;28;20290;-72
2023/05/14 11:59:27;;;;;;;1.02;0.95;;;23.00;70.90;;;;;;4988500;28;20312;-72
2023/05/14 12:01:56;;;;;;;0.85;0.65;;;23.30;70.90;;;;;;4991155;28;20074;-72
2023/05/14 12:04:21;;;;;;;0.32;0.32;;;23.50;68.50;;;;;;4954783;28;20057;-72
2023/05/14 12:06:49;;;;;;;1.65;1.55;;;23.50;65.60;;;;;;4985641;28;20042;-71
2023/05/14 12:09:20;;;;;;;;;;;23.30;65.30;;;;;;4985465;28;20084;-71
2023/05/14 12:11:48;;;;;;;2.25;1.88;;;23.00;57.00;;;;;;4989834;28;19933;-71
2023/05/14 12:14:19;;;;;;;2.72;2.42;;;22.60;56.20;;;;;;4988241;28;20046;-71
2023/05/14 12:16:46;;;;;;;1.55;1.45;;;22.40;56.10;;;;;;4986836;28;20041;-71
2023/05/14 12:19:17;;;;;;;3.70;2.25;;;22.20;57.90;;;;;;4989094;28;20046;-71
2023/05/14 12:21:44;;;;;;;2.08;1.35;;;22.10;58.90;;;;;;4990601;28;20701;-71
2023/05/14 12:24:15;;;;;;;2.20;2.00;;;22.00;59.50;;;;;;4986839;28;20050;-71
2023/05/14 12:26:46;;;;;;;0.95;0.95;;;21.90;57.60;;;;;;4974170;28;20046;-71
2023/05/14 12:29:14;;;;;;;2.17;2.03;;;21.90;58.10;;;;;;4972682;28;20054;-70
2023/05/14 12:31:47;;;;;;;0.75;0.75;;;21.90;60.40;;;;;;4987770;28;20507;-71
2023/05/14 12:34:13;;;;;;;1.15;1.15;;;22.00;58.30;;;;;;4987737;28;20166;-71
2023/05/14 12:36:39;;;;;;;0.75;0.70;;;22.10;60.10;;;;;;4992079;28;20034;-70
2023/05/14 12:39:05;;;;;;;0.57;0.57;;;22.20;61.10;;;;;;4982529;28;20051;-71
2023/05/14 12:41:31;;;;;;;0.60;0.60;;;22.30;59.90;;;;;;4985352;28;20042;-71
2023/05/14 12:43:58;;;;;;;0.80;0.80;;;22.40;61.80;;;;;;4987525;28;20038;-71
2023/05/14 12:46:25;;;;;;;0.80;0.80;;;22.60;60.70;;;;;;4969597;28;20049;-71